sensor_id;sensor_type;location;lat;lon;timestamp;pressure;altitude;pressure_sealevel;temperature;humidity
28428;BME280;15662;49.128;8.520;2023-02-13T00:01:16;102495.97;;;10.02;53.18
28428;BME280;15662;49.128;8.520;2023-02-13T00:03:44;102493.28;;;9.99;53.02
28428;BME280;15662;49.128;8.520;2023-02-13T00:06:21;102484.34;;;9.89;53.12
28428;BME280;15662;49.128;8.520;2023-02-13T00:08:50;102482.59;;;9.91;53.08
28428;BME280;15662;49.128;8.520;2023-02-13T00:11:17;102480.78;;;9.89;53.21
28428;BME280;15662;49.128;8.520;2023-02-13T00:13:47;102471.91;;;9.83;52.99
28428;BME280;15662;49.128;8.520;2023-02-13T00:16:15;102481.63;;;9.85;53.53
28428;BME280;15662;49.128;8.520;2023-02-13T00:18:43;102475.41;;;9.79;53.09
28428;BME280;15662;49.128;8.520;2023-02-13T00:21:12;102485.16;;;9.82;53.00
28428;BME280;15662;49.128;8.520;2023-02-13T00:23:40;102485.09;;;9.76;53.12
28428;BME280;15662;49.128;8.520;2023-02-13T00:26:12;102484.22;;;9.75;53.21
28428;BME280;15662;49.128;8.520;2023-02-13T00:28:44;102492.16;;;9.75;53.22
28428;BME280;15662;49.128;8.520;2023-02-13T00:31:16;102493.00;;;9.74;53.06
28428;BME280;15662;49.128;8.520;2023-02-13T00:33:46;102482.38;;;9.71;52.95
28428;BME280;15662;49.128;8.520;2023-02-13T00:36:20;102472.63;;;9.66;53.40
28428;BME280;15662;49.128;8.520;2023-02-13T00:38:49;102485.84;;;9.66;53.12
28428;BME280;15662;49.128;8.520;2023-02-13T00:41:17;102473.47;;;9.65;53.34
28428;BME280;15662;49.128;8.520;2023-02-13T00:43:45;102479.66;;;9.65;53.31
28428;BME280;15662;49.128;8.520;2023-02-13T00:46:15;102477.03;;;9.67;53.20
28428;BME280;15662;49.128;8.520;2023-02-13T00:48:44;102472.56;;;9.64;53.42
28428;BME280;15662;49.128;8.520;2023-02-13T00:51:12;102482.28;;;9.64;53.00
28428;BME280;15662;49.128;8.520;2023-02-13T00:53:40;102475.16;;;9.60;53.11
28428;BME280;15662;49.128;8.520;2023-02-13T00:56:08;102480.47;;;9.58;53.07
28428;BME280;15662;49.128;8.520;2023-02-13T00:58:36;102485.75;;;9.56;53.14
28428;BME280;15662;49.128;8.520;2023-02-13T01:01:05;102487.50;;;9.56;53.31
28428;BME280;15662;49.128;8.520;2023-02-13T01:03:34;102495.41;;;9.53;53.17
28428;BME280;15662;49.128;8.520;2023-02-13T01:06:02;102497.09;;;9.49;53.45
28428;BME280;15662;49.128;8.520;2023-02-13T01:08:31;102497.03;;;9.45;53.03
28428;BME280;15662;49.128;8.520;2023-02-13T01:10:59;102495.22;;;9.41;53.18
28428;BME280;15662;49.128;8.520;2023-02-13T01:13:28;102488.16;;;9.40;53.25
28428;BME280;15662;49.128;8.520;2023-02-13T01:15:56;102500.50;;;9.38;53.57
28428;BME280;15662;49.128;8.520;2023-02-13T01:18:25;102489.91;;;9.36;53.65
28428;BME280;15662;49.128;8.520;2023-02-13T01:21:06;102484.53;;;9.32;53.35
28428;BME280;15662;49.128;8.520;2023-02-13T01:23:37;102498.63;;;9.30;53.64
28428;BME280;15662;49.128;8.520;2023-02-13T01:26:07;102494.19;;;9.28;53.39
28428;BME280;15662;49.128;8.520;2023-02-13T01:28:37;102494.19;;;9.28;53.91
28428;BME280;15662;49.128;8.520;2023-02-13T01:31:05;102493.25;;;9.23;53.50
28428;BME280;15662;49.128;8.520;2023-02-13T01:33:33;102479.94;;;9.17;53.76
28428;BME280;15662;49.128;8.520;2023-02-13T01:36:11;102481.72;;;9.19;53.44
28428;BME280;15662;49.128;8.520;2023-02-13T01:38:40;102490.53;;;9.17;53.69
28428;BME280;15662;49.128;8.520;2023-02-13T01:41:09;102478.19;;;9.17;53.86
28428;BME280;15662;49.128;8.520;2023-02-13T01:43:50;102485.28;;;9.21;53.96
28428;BME280;15662;49.128;8.520;2023-02-13T01:49:19;102481.72;;;9.21;53.76
28428;BME280;15662;49.128;8.520;2023-02-13T01:51:53;102465.78;;;9.15;54.19
28428;BME280;15662;49.128;8.520;2023-02-13T01:54:27;102479.97;;;9.20;53.74
28428;BME280;15662;49.128;8.520;2023-02-13T01:57:06;102463.13;;;9.13;54.22
28428;BME280;15662;49.128;8.520;2023-02-13T02:02:16;102464.84;;;9.11;54.29
28428;BME280;15662;49.128;8.520;2023-02-13T02:04:46;102476.41;;;9.16;54.27
28428;BME280;15662;49.128;8.520;2023-02-13T02:07:24;102480.84;;;9.19;53.98
28428;BME280;15662;49.128;8.520;2023-02-13T02:09:58;102476.44;;;9.19;54.27
28428;BME280;15662;49.128;8.520;2023-02-13T02:15:01;102480.88;;;9.22;54.67
28428;BME280;15662;49.128;8.520;2023-02-13T02:17:32;102459.53;;;9.11;54.65
28428;BME280;15662;49.128;8.520;2023-02-13T02:44:30;102464.16;;;9.26;54.55
28428;BME280;15662;49.128;8.520;2023-02-13T02:47:30;102467.69;;;9.25;54.75
28428;BME280;15662;49.128;8.520;2023-02-13T02:50:45;102465.00;;;9.22;54.69
28428;BME280;15662;49.128;8.520;2023-02-13T02:56:44;102462.31;;;9.19;54.72
28428;BME280;15662;49.128;8.520;2023-02-13T02:59:34;102470.25;;;9.19;54.65
28428;BME280;15662;49.128;8.520;2023-02-13T03:02:22;102467.59;;;9.19;54.89
28428;BME280;15662;49.128;8.520;2023-02-13T03:05:28;102462.25;;;9.14;54.48
28428;BME280;15662;49.128;8.520;2023-02-13T03:08:16;102464.06;;;9.17;54.79
28428;BME280;15662;49.128;8.520;2023-02-13T03:11:05;102464.00;;;9.14;54.92
28428;BME280;15662;49.128;8.520;2023-02-13T03:13:52;102474.66;;;9.20;54.55
28428;BME280;15662;49.128;8.520;2023-02-13T03:16:23;102467.59;;;9.20;54.78
28428;BME280;15662;49.128;8.520;2023-02-13T03:19:34;102467.59;;;9.20;54.38
28428;BME280;15662;49.128;8.520;2023-02-13T03:25:39;102476.44;;;9.19;54.57
28428;BME280;15662;49.128;8.520;2023-02-13T03:28:26;102479.06;;;9.16;54.47
28428;BME280;15662;49.128;8.520;2023-02-13T03:31:47;102485.31;;;9.23;54.67
28428;BME280;15662;49.128;8.520;2023-02-13T03:34:20;102483.47;;;9.19;54.54
28428;BME280;15662;49.128;8.520;2023-02-13T03:37:00;102487.03;;;9.21;54.69
28428;BME280;15662;49.128;8.520;2023-02-13T03:42:39;102504.69;;;9.22;54.60
28428;BME280;15662;49.128;8.520;2023-02-13T03:45:29;102495.81;;;9.17;54.32
28428;BME280;15662;49.128;8.520;2023-02-13T03:48:33;102500.22;;;9.16;54.91
28428;BME280;15662;49.128;8.520;2023-02-13T03:51:38;102508.16;;;9.16;54.80
28428;BME280;15662;49.128;8.520;2023-02-13T03:54:21;102520.47;;;9.14;54.69
28428;BME280;15662;49.128;8.520;2023-02-13T03:57:10;102511.56;;;9.11;54.63
28428;BME280;15662;49.128;8.520;2023-02-13T04:00:02;102508.91;;;9.09;54.59
28428;BME280;15662;49.128;8.520;2023-02-13T04:02:52;102514.28;;;9.14;54.45
28428;BME280;15662;49.128;8.520;2023-02-13T04:05:22;102522.88;;;8.99;55.25
28428;BME280;15662;49.128;8.520;2023-02-13T04:07:52;102521.25;;;9.09;54.63
28428;BME280;15662;49.128;8.520;2023-02-13T04:10:21;102516.03;;;9.13;54.91
28428;BME280;15662;49.128;8.520;2023-02-13T04:13:09;102517.75;;;9.11;54.46
28428;BME280;15662;49.128;8.520;2023-02-13T04:15:52;102502.78;;;9.12;54.44
28428;BME280;15662;49.128;8.520;2023-02-13T04:18:29;102493.00;;;9.06;54.48
28428;BME280;15662;49.128;8.520;2023-02-13T04:21:05;102516.88;;;9.11;54.60
28428;BME280;15662;49.128;8.520;2023-02-13T04:23:33;102510.69;;;9.09;54.56
28428;BME280;15662;49.128;8.520;2023-02-13T04:26:08;102523.03;;;9.11;54.88
28428;BME280;15662;49.128;8.520;2023-02-13T04:28:38;102522.09;;;9.06;54.55
28428;BME280;15662;49.128;8.520;2023-02-13T04:31:06;102523.84;;;9.04;54.97
28428;BME280;15662;49.128;8.520;2023-02-13T04:33:34;102522.06;;;9.04;54.75
28428;BME280;15662;49.128;8.520;2023-02-13T04:36:02;102517.66;;;9.02;55.10
28428;BME280;15662;49.128;8.520;2023-02-13T04:38:30;102514.94;;;8.97;54.92
28428;BME280;15662;49.128;8.520;2023-02-13T04:40:58;102503.47;;;8.97;54.62
28428;BME280;15662;49.128;8.520;2023-02-13T04:43:26;102508.78;;;9.00;54.95
28428;BME280;15662;49.128;8.520;2023-02-13T04:45:54;102507.84;;;8.96;55.05
28428;BME280;15662;49.128;8.520;2023-02-13T04:48:22;102510.53;;;8.99;54.87
28428;BME280;15662;49.128;8.520;2023-02-13T04:50:50;102501.72;;;8.99;55.19
28428;BME280;15662;49.128;8.520;2023-02-13T04:53:18;102500.81;;;8.97;54.94
28428;BME280;15662;49.128;8.520;2023-02-13T04:55:46;102505.16;;;8.95;54.83
28428;BME280;15662;49.128;8.520;2023-02-13T04:58:13;102500.75;;;8.94;54.45
28428;BME280;15662;49.128;8.520;2023-02-13T05:00:41;102492.75;;;8.89;54.65
28428;BME280;15662;49.128;8.520;2023-02-13T05:03:12;102499.84;;;8.92;54.66
28428;BME280;15662;49.128;8.520;2023-02-13T05:05:40;102499.75;;;8.86;54.70
28428;BME280;15662;49.128;8.520;2023-02-13T05:08:08;102491.72;;;8.81;54.70
28428;BME280;15662;49.128;8.520;2023-02-13T05:10:36;102496.06;;;8.74;55.02
28428;BME280;15662;49.128;8.520;2023-02-13T05:13:04;102497.72;;;8.68;55.13
28428;BME280;15662;49.128;8.520;2023-02-13T05:15:32;102495.00;;;8.65;55.07
28428;BME280;15662;49.128;8.520;2023-02-13T05:18:00;102502.97;;;8.66;55.27
28428;BME280;15662;49.128;8.520;2023-02-13T05:20:28;102492.31;;;8.62;55.35
28428;BME280;15662;49.128;8.520;2023-02-13T05:22:56;102487.88;;;8.61;55.20
28428;BME280;15662;49.128;8.520;2023-02-13T05:25:43;102481.63;;;8.52;55.37
28428;BME280;15662;49.128;8.520;2023-02-13T05:28:11;102489.50;;;8.51;55.11
28428;BME280;15662;49.128;8.520;2023-02-13T05:30:57;102485.94;;;8.47;54.70
28428;BME280;15662;49.128;8.520;2023-02-13T05:33:26;102494.69;;;8.46;54.92
28428;BME280;15662;49.128;8.520;2023-02-13T05:35:54;102490.19;;;8.39;55.13
28428;BME280;15662;49.128;8.520;2023-02-13T05:38:22;102484.78;;;8.35;55.48
28428;BME280;15662;49.128;8.520;2023-02-13T05:40:50;102482.00;;;8.27;55.19
28428;BME280;15662;49.128;8.520;2023-02-13T05:43:18;102486.44;;;8.28;54.98
28428;BME280;15662;49.128;8.520;2023-02-13T05:45:46;102489.03;;;8.25;55.05
28428;BME280;15662;49.128;8.520;2023-02-13T05:48:14;102474.84;;;8.20;54.71
28428;BME280;15662;49.128;8.520;2023-02-13T05:50:44;102489.81;;;8.21;55.16
28428;BME280;15662;49.128;8.520;2023-02-13T05:53:12;102496.88;;;8.22;55.27
28428;BME280;15662;49.128;8.520;2023-02-13T05:55:40;102491.50;;;8.17;55.58
28428;BME280;15662;49.128;8.520;2023-02-13T05:58:08;102479.06;;;8.10;54.89
28428;BME280;15662;49.128;8.520;2023-02-13T06:00:36;102466.59;;;8.01;55.10
28428;BME280;15662;49.128;8.520;2023-02-13T06:03:03;102486.97;;;8.09;54.92
28428;BME280;15662;49.128;8.520;2023-02-13T06:05:31;102487.81;;;8.08;55.14
28428;BME280;15662;49.128;8.520;2023-02-13T06:07:59;102484.19;;;8.02;55.25
28428;BME280;15662;49.128;8.520;2023-02-13T06:10:27;102485.91;;;7.99;55.57
28428;BME280;15662;49.128;8.520;2023-02-13T06:12:55;102483.22;;;7.97;55.13
28428;BME280;15662;49.128;8.520;2023-02-13T06:15:22;102484.88;;;7.92;55.58
28428;BME280;15662;49.128;8.520;2023-02-13T06:17:50;102474.19;;;7.85;55.25
28428;BME280;15662;49.128;8.520;2023-02-13T06:20:18;102484.81;;;7.88;55.47
28428;BME280;15662;49.128;8.520;2023-02-13T06:22:50;102485.84;;;7.94;55.51
28428;BME280;15662;49.128;8.520;2023-02-13T06:25:19;102486.72;;;7.95;55.73
28428;BME280;15662;49.128;8.520;2023-02-13T06:27:47;102497.28;;;7.95;55.44
28428;BME280;15662;49.128;8.520;2023-02-13T06:30:17;102479.59;;;7.92;55.29
28428;BME280;15662;49.128;8.520;2023-02-13T06:32:46;102487.59;;;7.94;55.69
28428;BME280;15662;49.128;8.520;2023-02-13T06:35:15;102493.78;;;7.96;55.37
28428;BME280;15662;49.128;8.520;2023-02-13T06:37:43;102505.28;;;7.99;55.94
28428;BME280;15662;49.128;8.520;2023-02-13T06:40:13;102493.84;;;7.99;55.69
28428;BME280;15662;49.128;8.520;2023-02-13T06:42:42;102488.50;;;7.97;55.56
28428;BME280;15662;49.128;8.520;2023-02-13T06:45:11;102508.03;;;8.04;55.72
28428;BME280;15662;49.128;8.520;2023-02-13T06:47:42;102506.25;;;8.05;55.77
28428;BME280;15662;49.128;8.520;2023-02-13T06:50:12;102501.84;;;8.04;55.30
28428;BME280;15662;49.128;8.520;2023-02-13T06:52:51;102500.00;;;7.99;55.44
28428;BME280;15662;49.128;8.520;2023-02-13T06:55:19;102521.25;;;8.06;55.71
28428;BME280;15662;49.128;8.520;2023-02-13T06:57:49;102510.66;;;8.04;55.42
28428;BME280;15662;49.128;8.520;2023-02-13T07:00:18;102512.41;;;8.04;55.06
28428;BME280;15662;49.128;8.520;2023-02-13T07:02:46;102515.94;;;8.04;55.23
28428;BME280;15662;49.128;8.520;2023-02-13T07:05:14;102521.44;;;8.15;55.63
28428;BME280;15662;49.128;8.520;2023-02-13T07:07:42;102525.84;;;8.16;55.80
28428;BME280;15662;49.128;8.520;2023-02-13T07:10:13;102527.63;;;8.17;55.11
28428;BME280;15662;49.128;8.520;2023-02-13T07:12:42;102531.13;;;8.17;55.37
28428;BME280;15662;49.128;8.520;2023-02-13T07:15:14;102523.09;;;8.11;55.47
28428;BME280;15662;49.128;8.520;2023-02-13T07:17:41;102535.50;;;8.14;55.86
28428;BME280;15662;49.128;8.520;2023-02-13T07:20:10;102522.22;;;8.11;55.48
28428;BME280;15662;49.128;8.520;2023-02-13T07:22:37;102531.88;;;8.09;55.40
28428;BME280;15662;49.128;8.520;2023-02-13T07:25:06;102533.59;;;8.07;55.62
28428;BME280;15662;49.128;8.520;2023-02-13T07:27:33;102532.59;;;8.01;56.02
28428;BME280;15662;49.128;8.520;2023-02-13T07:30:02;102537.13;;;8.07;55.46
28428;BME280;15662;49.128;8.520;2023-02-13T07:32:30;102531.78;;;8.04;55.42
28428;BME280;15662;49.128;8.520;2023-02-13T07:34:58;102538.06;;;8.09;55.53
28428;BME280;15662;49.128;8.520;2023-02-13T07:37:32;102538.84;;;8.04;55.38
28428;BME280;15662;49.128;8.520;2023-02-13T07:40:00;102523.03;;;8.07;55.53
28428;BME280;15662;49.128;8.520;2023-02-13T07:42:34;102526.50;;;8.04;55.03
28428;BME280;15662;49.128;8.520;2023-02-13T07:45:02;102525.66;;;8.05;55.72
28428;BME280;15662;49.128;8.520;2023-02-13T07:47:34;102529.06;;;7.99;55.72
28428;BME280;15662;49.128;8.520;2023-02-13T07:50:03;102533.59;;;8.07;55.25
28428;BME280;15662;49.128;8.520;2023-02-13T07:52:32;102518.53;;;8.02;55.79
28428;BME280;15662;49.128;8.520;2023-02-13T07:55:05;102526.50;;;8.04;55.38
28428;BME280;15662;49.128;8.520;2023-02-13T07:57:33;102523.78;;;7.99;55.90
28428;BME280;15662;49.128;8.520;2023-02-13T08:00:04;102526.41;;;7.98;55.86
28428;BME280;15662;49.128;8.520;2023-02-13T08:02:38;102534.44;;;8.06;55.32
28428;BME280;15662;49.128;8.520;2023-02-13T08:05:06;102534.53;;;8.10;55.82
28428;BME280;15662;49.128;8.520;2023-02-13T08:07:37;102531.91;;;8.10;55.58
28428;BME280;15662;49.128;8.520;2023-02-13T08:10:07;102530.22;;;8.14;55.54
28428;BME280;15662;49.128;8.520;2023-02-13T08:12:54;102525.81;;;8.14;55.57
28428;BME280;15662;49.128;8.520;2023-02-13T08:15:22;102528.56;;;8.19;55.60
28428;BME280;15662;49.128;8.520;2023-02-13T08:17:52;102513.53;;;8.16;55.83
28428;BME280;15662;49.128;8.520;2023-02-13T08:20:20;102534.81;;;8.25;55.76
28428;BME280;15662;49.128;8.520;2023-02-13T08:22:51;102519.75;;;8.20;56.26
28428;BME280;15662;49.128;8.520;2023-02-13T08:25:19;102533.13;;;8.29;55.84
28428;BME280;15662;49.128;8.520;2023-02-13T08:27:46;102534.03;;;8.30;55.77
28428;BME280;15662;49.128;8.520;2023-02-13T08:30:15;102532.34;;;8.33;56.08
28428;BME280;15662;49.128;8.520;2023-02-13T08:32:43;102531.53;;;8.37;56.23
28428;BME280;15662;49.128;8.520;2023-02-13T08:35:21;102530.81;;;8.44;55.95
28428;BME280;15662;49.128;8.520;2023-02-13T08:37:54;102527.38;;;8.50;55.89
28428;BME280;15662;49.128;8.520;2023-02-13T08:40:22;102527.50;;;8.58;55.94
28428;BME280;15662;49.128;8.520;2023-02-13T08:42:59;102533.78;;;8.64;55.75
28428;BME280;15662;49.128;8.520;2023-02-13T08:45:28;102528.56;;;8.67;56.07
28428;BME280;15662;49.128;8.520;2023-02-13T08:47:57;102531.28;;;8.72;55.79
28428;BME280;15662;49.128;8.520;2023-02-13T08:50:26;102535.72;;;8.74;55.67
28428;BME280;15662;49.128;8.520;2023-02-13T08:53:14;102537.50;;;8.75;55.70
28428;BME280;15662;49.128;8.520;2023-02-13T08:55:42;102540.19;;;8.78;55.95
28428;BME280;15662;49.128;8.520;2023-02-13T08:58:17;102533.22;;;8.85;55.94
28428;BME280;15662;49.128;8.520;2023-02-13T09:00:45;102533.28;;;8.88;55.32
28428;BME280;15662;49.128;8.520;2023-02-13T09:03:14;102527.22;;;8.95;55.67
28428;BME280;15662;49.128;8.520;2023-02-13T09:05:42;102530.81;;;8.99;55.95
28428;BME280;15662;49.128;8.520;2023-02-13T09:08:12;102534.44;;;9.05;55.45
28428;BME280;15662;49.128;8.520;2023-02-13T09:10:41;102540.75;;;9.14;55.77
28428;BME280;15662;49.128;8.520;2023-02-13T09:13:12;102543.47;;;9.20;55.60
28428;BME280;15662;49.128;8.520;2023-02-13T09:15:41;102535.59;;;9.23;55.38
28428;BME280;15662;49.128;8.520;2023-02-13T09:18:09;102527.72;;;9.30;55.36
28428;BME280;15662;49.128;8.520;2023-02-13T09:20:37;102532.22;;;9.35;55.65
28428;BME280;15662;49.128;8.520;2023-02-13T09:23:05;102534.09;;;9.42;55.43
28428;BME280;15662;49.128;8.520;2023-02-13T09:25:33;102536.81;;;9.46;55.17
28428;BME280;15662;49.128;8.520;2023-02-13T09:28:00;102537.69;;;9.48;55.38
28428;BME280;15662;49.128;8.520;2023-02-13T09:30:28;102523.50;;;9.43;55.39
28428;BME280;15662;49.128;8.520;2023-02-13T09:32:56;102523.63;;;9.52;55.15
28428;BME280;15662;49.128;8.520;2023-02-13T09:35:24;102531.59;;;9.55;54.95
28428;BME280;15662;49.128;8.520;2023-02-13T09:37:52;102529.00;;;9.59;55.21
28428;BME280;15662;49.128;8.520;2023-02-13T09:40:34;102534.41;;;9.68;55.20
28428;BME280;15662;49.128;8.520;2023-02-13T09:43:27;102541.53;;;9.73;54.79
28428;BME280;15662;49.128;8.520;2023-02-13T09:46:10;102547.78;;;9.80;54.92
28428;BME280;15662;49.128;8.520;2023-02-13T09:48:43;102542.47;;;9.77;55.13
28428;BME280;15662;49.128;8.520;2023-02-13T09:51:15;102540.59;;;9.70;55.03
28428;BME280;15662;49.128;8.520;2023-02-13T09:53:59;102532.94;;;9.91;54.78
28428;BME280;15662;49.128;8.520;2023-02-13T10:11:49;102550.94;;;10.20;54.62
28428;BME280;15662;49.128;8.520;2023-02-13T10:14:47;102539.53;;;10.25;54.35
28428;BME280;15662;49.128;8.520;2023-02-13T10:17:40;102543.06;;;10.27;54.07
28428;BME280;15662;49.128;8.520;2023-02-13T10:26:15;102549.47;;;10.48;54.24
28428;BME280;15662;49.128;8.520;2023-02-13T10:28:59;102550.44;;;10.57;54.00
28428;BME280;15662;49.128;8.520;2023-02-13T10:31:48;102547.81;;;10.59;54.07
28428;BME280;15662;49.128;8.520;2023-02-13T10:34:21;102541.63;;;10.62;53.76
28428;BME280;15662;49.128;8.520;2023-02-13T10:36:52;102531.91;;;10.64;53.71
28428;BME280;15662;49.128;8.520;2023-02-13T10:39:28;102543.53;;;10.78;53.61
28428;BME280;15662;49.128;8.520;2023-02-13T10:42:43;102537.38;;;10.79;53.32
28428;BME280;15662;49.128;8.520;2023-02-13T10:48:29;102528.59;;;10.89;53.42
28428;BME280;15662;49.128;8.520;2023-02-13T10:51:54;102531.28;;;10.98;53.25
28428;BME280;15662;49.128;8.520;2023-02-13T10:57:08;102527.78;;;11.02;53.44
28428;BME280;15662;49.128;8.520;2023-02-13T10:59:59;102526.09;;;11.10;53.23
28428;BME280;15662;49.128;8.520;2023-02-13T11:02:31;102516.31;;;11.08;53.29
28428;BME280;15662;49.128;8.520;2023-02-13T11:05:16;102508.41;;;11.17;52.96
28428;BME280;15662;49.128;8.520;2023-02-13T11:07:46;102515.53;;;11.20;53.02
28428;BME280;15662;49.128;8.520;2023-02-13T11:10:19;102509.38;;;11.24;52.94
28428;BME280;15662;49.128;8.520;2023-02-13T11:12:48;102496.09;;;11.24;52.70
28428;BME280;15662;49.128;8.520;2023-02-13T11:15:26;102499.69;;;11.36;52.49
28428;BME280;15662;49.128;8.520;2023-02-13T11:17:59;102502.34;;;11.36;52.89
28428;BME280;15662;49.128;8.520;2023-02-13T11:20:40;102491.75;;;11.38;52.60
28428;BME280;15662;49.128;8.520;2023-02-13T11:26:08;102506.84;;;11.54;52.34
28428;BME280;15662;49.128;8.520;2023-02-13T11:28:54;102499.78;;;11.58;52.48
28428;BME280;15662;49.128;8.520;2023-02-13T11:31:36;102502.50;;;11.69;52.27
28428;BME280;15662;49.128;8.520;2023-02-13T11:34:25;102495.41;;;11.72;52.05
28428;BME280;15662;49.128;8.520;2023-02-13T11:37:20;102501.63;;;11.77;51.99
28428;BME280;15662;49.128;8.520;2023-02-13T11:39:53;102498.97;;;11.77;52.26
28428;BME280;15662;49.128;8.520;2023-02-13T11:42:35;102492.78;;;11.81;51.94
28428;BME280;15662;49.128;8.520;2023-02-13T11:45:22;102491.06;;;11.90;52.06
28428;BME280;15662;49.128;8.520;2023-02-13T11:47:52;102491.94;;;11.92;52.10
28428;BME280;15662;49.128;8.520;2023-02-13T11:50:33;102485.75;;;12.02;51.67
28428;BME280;15662;49.128;8.520;2023-02-13T11:53:23;102479.53;;;11.83;51.92
28428;BME280;15662;49.128;8.520;2023-02-13T11:56:13;102481.34;;;12.01;52.00
28428;BME280;15662;49.128;8.520;2023-02-13T11:58:42;102469.84;;;12.05;51.83
28428;BME280;15662;49.128;8.520;2023-02-13T12:04:06;102485.81;;;12.25;51.45
28428;BME280;15662;49.128;8.520;2023-02-13T12:06:59;102466.31;;;12.26;51.63
28428;BME280;15662;49.128;8.520;2023-02-13T12:09:29;102463.69;;;12.32;51.75
28428;BME280;15662;49.128;8.520;2023-02-13T12:12:00;102461.88;;;12.38;51.38
28428;BME280;15662;49.128;8.520;2023-02-13T12:14:42;102470.78;;;12.47;51.47
28428;BME280;15662;49.128;8.520;2023-02-13T12:17:22;102471.66;;;12.52;51.31
28428;BME280;15662;49.128;8.520;2023-02-13T12:19:59;102464.53;;;12.51;51.45
28428;BME280;15662;49.128;8.520;2023-02-13T12:28:27;102464.53;;;12.64;51.21
28428;BME280;15662;49.128;8.520;2023-02-13T12:35:28;102453.00;;;12.69;50.95
28428;BME280;15662;49.128;8.520;2023-02-13T12:37:51;102468.09;;;12.73;51.13
28428;BME280;15662;49.128;8.520;2023-02-13T13:04:34;102429.88;;;13.01;50.26
28428;BME280;15662;49.128;8.520;2023-02-13T13:27:35;102409.38;;;13.31;49.58
28428;BME280;15662;49.128;8.520;2023-02-13T13:32:43;102415.56;;;13.40;49.69
28428;BME280;15662;49.128;8.520;2023-02-13T13:35:16;102416.41;;;13.47;49.43
28428;BME280;15662;49.128;8.520;2023-02-13T13:38:14;102403.94;;;13.52;49.15
28428;BME280;15662;49.128;8.520;2023-02-13T13:40:56;102408.38;;;13.55;49.31
28428;BME280;15662;49.128;8.520;2023-02-13T13:46:41;102412.78;;;13.60;49.37
28428;BME280;15662;49.128;8.520;2023-02-13T13:52:30;102413.63;;;13.67;49.27
28428;BME280;15662;49.128;8.520;2023-02-13T13:55:00;102413.63;;;13.70;49.31
28428;BME280;15662;49.128;8.520;2023-02-13T14:05:25;102389.59;;;13.75;48.93
28428;BME280;15662;49.128;8.520;2023-02-13T14:07:57;102397.53;;;13.82;48.96
28428;BME280;15662;49.128;8.520;2023-02-13T14:23:43;102401.84;;;13.99;48.59
28428;BME280;15662;49.128;8.520;2023-02-13T14:31:34;102372.56;;;13.96;48.55
28428;BME280;15662;49.128;8.520;2023-02-13T14:37:04;102377.78;;;14.06;48.16
28428;BME280;15662;49.128;8.520;2023-02-13T14:39:34;102382.22;;;14.07;48.50
28428;BME280;15662;49.128;8.520;2023-02-13T14:42:20;102374.16;;;14.13;48.43
28428;BME280;15662;49.128;8.520;2023-02-13T14:44:53;102375.09;;;14.14;48.36
28428;BME280;15662;49.128;8.520;2023-02-13T14:47:36;102362.56;;;14.20;48.30
28428;BME280;15662;49.128;8.520;2023-02-13T14:50:28;102369.63;;;14.23;48.35
28428;BME280;15662;49.128;8.520;2023-02-13T14:52:59;102359.84;;;14.25;48.29
28428;BME280;15662;49.128;8.520;2023-02-13T14:55:45;102341.22;;;14.20;48.27
28428;BME280;15662;49.128;8.520;2023-02-13T14:58:36;102342.03;;;14.27;48.03
28428;BME280;15662;49.128;8.520;2023-02-13T15:01:33;102361.56;;;14.31;48.07
28428;BME280;15662;49.128;8.520;2023-02-13T15:04:25;102353.66;;;14.25;48.15
28428;BME280;15662;49.128;8.520;2023-02-13T15:06:57;102359.81;;;14.28;48.11
28428;BME280;15662;49.128;8.520;2023-02-13T15:09:36;102358.88;;;14.34;47.93
28428;BME280;15662;49.128;8.520;2023-02-13T15:12:34;102355.31;;;14.33;48.05
28428;BME280;15662;49.128;8.520;2023-02-13T15:15:30;102360.66;;;14.35;48.07
28428;BME280;15662;49.128;8.520;2023-02-13T15:18:09;102352.66;;;14.35;48.03
28428;BME280;15662;49.128;8.520;2023-02-13T15:20:41;102346.50;;;14.27;47.99
28428;BME280;15662;49.128;8.520;2023-02-13T15:23:24;102351.72;;;14.37;47.84
28428;BME280;15662;49.128;8.520;2023-02-13T15:26:02;102337.53;;;14.32;47.80
28428;BME280;15662;49.128;8.520;2023-02-13T15:28:32;102342.84;;;14.35;48.00
28428;BME280;15662;49.128;8.520;2023-02-13T15:31:18;102347.31;;;14.35;48.00
28428;BME280;15662;49.128;8.520;2023-02-13T15:33:50;102350.84;;;14.37;48.03
28428;BME280;15662;49.128;8.520;2023-02-13T15:36:21;102338.38;;;14.37;47.85
28428;BME280;15662;49.128;8.520;2023-02-13T15:38:59;102338.41;;;14.36;47.96
28428;BME280;15662;49.128;8.520;2023-02-13T15:41:42;102337.56;;;14.31;47.75
28428;BME280;15662;49.128;8.520;2023-02-13T15:44:34;102352.63;;;14.36;47.71
28428;BME280;15662;49.128;8.520;2023-02-13T15:47:14;102342.88;;;14.34;47.86
28428;BME280;15662;49.128;8.520;2023-02-13T15:49:46;102349.97;;;14.35;47.85
28428;BME280;15662;49.128;8.520;2023-02-13T15:52:32;102349.28;;;14.16;48.34
28428;BME280;15662;49.128;8.520;2023-02-13T15:55:05;102343.84;;;14.25;48.18
28428;BME280;15662;49.128;8.520;2023-02-13T15:57:34;102343.84;;;14.25;48.15
28428;BME280;15662;49.128;8.520;2023-02-13T16:00:02;102344.66;;;14.32;47.97
28428;BME280;15662;49.128;8.520;2023-02-13T16:02:44;102335.81;;;14.27;47.73
28428;BME280;15662;49.128;8.520;2023-02-13T16:05:16;102330.53;;;14.24;47.76
28428;BME280;15662;49.128;8.520;2023-02-13T16:08:29;102337.63;;;14.25;47.69
28428;BME280;15662;49.128;8.520;2023-02-13T16:11:24;102348.25;;;14.28;47.81
28428;BME280;15662;49.128;8.520;2023-02-13T16:14:18;102352.75;;;14.24;47.70
28428;BME280;15662;49.128;8.520;2023-02-13T16:17:01;102342.16;;;14.16;47.82
28428;BME280;15662;49.128;8.520;2023-02-13T16:19:38;102342.16;;;14.15;47.88
28428;BME280;15662;49.128;8.520;2023-02-13T16:24:54;102343.94;;;14.13;47.86
28428;BME280;15662;49.128;8.520;2023-02-13T16:27:26;102321.81;;;14.05;47.79
28428;BME280;15662;49.128;8.520;2023-02-13T16:30:06;102333.31;;;14.11;47.84